Fort Seneca, Ohio
Current Conditions -  °F | °C
As of 7:53 PM on Sunday 23 Nov 2014 (Local Time) from KFDY Reporting Station
Light Rain Light Rain  
Wind Chill: 54°   Ceiling: 5500
Heat Index: 54°   Visibility: 10mi
Dew Point: 47°   Wind: 20mph
Humidity: 77%   Direction: 140°SE
Pressure: 29.46"   Gusts: 26mph
Location:  41.154°N, 83.2212°W
Report Text: KFDY 240053Z AUTO 14017G23KT 10SM -RA BKN055 OVC070 12/08 A2946 RMK AO2 PK WND 13026/0011 SLP972 P0002 T01220083
Loading
Personal Weather Stations






























Interactive Weather Map New forecast layout! Learn more

10-Day Weather Forecast

Advertisements
Track Severe Weather on mobile